Time;durP1;ratioP1;P1;durP2;ratioP2;P2;SDS_P1;SDS_P2;PMS_P1;PMS_P2;Temp;Humidity;BMP_temperature;BMP_pressure;BME280_temperature;BME280_humidity;BME280_pressure;Samples;Min_cycle;Max_cycle;Signal;HPM_P1;HPM_P2
2021/10/27 00:01:39;;;;;;;;;;;;;;;-142.75;100.00;77377.44;4989684;28;20065;-69
2021/10/27 00:04:05;;;;;;;22.25;10.40;;;;;;;-142.75;100.00;77379.41;4989739;28;20378;-70
2021/10/27 00:06:31;;;;;;;15.60;10.80;;;;;;;-142.75;100.00;77389.25;4989703;28;20034;-69
2021/10/27 00:08:56;;;;;;;;;;;;;;;-142.75;100.00;77373.50;4972634;28;20462;-69
2021/10/27 00:11:21;;;;;;;21.30;10.10;;;;;;;-142.75;100.00;77393.19;4988719;28;19918;-69
2021/10/27 00:13:46;;;;;;;;;;;;;;;-142.75;100.00;77389.25;4991447;28;20438;-68
2021/10/27 00:16:12;;;;;;;24.88;10.82;;;;;;;-142.75;100.00;77393.19;4993134;28;19913;-68
2021/10/27 00:18:37;;;;;;;;;;;;;;;-142.75;100.00;77401.06;4993027;28;20428;-69
2021/10/27 00:21:03;;;;;;;26.45;11.68;;;;;;;-142.75;100.00;77397.13;4992659;28;20021;-69
2021/10/27 00:23:29;;;;;;;19.63;11.60;;;;;;;-142.75;100.00;77405.00;4993269;28;20022;-70
2021/10/27 00:25:54;;;;;;;21.50;11.80;;;;;;;-142.75;100.00;77397.13;4993359;28;20030;-68
2021/10/27 00:28:19;;;;;;;27.83;12.45;;;;;;;-142.75;100.00;77405.00;4993282;28;20148;-69
2021/10/27 00:30:44;;;;;;;;;;;;;;;-142.75;100.00;77397.13;4993014;28;20399;-68
2021/10/27 00:33:10;;;;;;;20.67;12.10;;;;;;;-142.75;100.00;77405.00;4993212;28;19918;-68
2021/10/27 00:35:35;;;;;;;;;;;;;;;-142.75;100.00;77397.13;4993697;28;20092;-68
2021/10/27 00:38:00;;;;;;;23.17;11.43;;;;;;;-142.75;100.00;77406.97;4993117;28;19926;-68
2021/10/27 00:40:26;;;;;;;24.50;12.60;;;;;;;-142.75;100.00;77414.84;4992265;28;20022;-68
2021/10/27 00:42:51;;;;;;;;;;;;;;;-142.75;100.00;77428.63;4993479;28;20057;-68
2021/10/27 00:45:16;;;;;;;23.50;12.02;;;;;;;-142.75;100.00;77432.56;4992944;28;20333;-68
2021/10/27 00:47:41;;;;;;;22.10;13.00;;;;;;;-142.75;100.00;77410.91;4993225;28;20477;-69
2021/10/27 00:50:07;;;;;;;;;;;;;;;-142.75;100.00;77403.03;4991232;28;20025;-69
2021/10/27 00:52:33;;;;;;;20.70;12.05;;;;;;;-142.75;100.00;77410.91;4975349;28;19918;-68
2021/10/27 00:54:58;;;;;;;;;;;;;;;-142.75;100.00;77410.91;4975822;28;20471;-68
2021/10/27 00:57:24;;;;;;;24.80;12.63;;;;;;;-142.75;100.00;77403.03;4992656;28;19924;-67
2021/10/27 00:59:50;;;;;;;21.63;12.07;;;;;;;-142.75;100.00;77412.88;4974577;28;20014;-67
2021/10/27 01:02:17;;;;;;;24.92;11.75;;;;;;;-142.75;100.00;77405.00;4992597;28;20035;-69
2021/10/27 01:04:43;;;;;;;23.38;12.23;;;;;;;-142.75;100.00;77416.81;4992933;28;20490;-68
2021/10/27 01:07:08;;;;;;;;;;;;;;;-142.75;100.00;77422.72;4992895;28;20487;-68
2021/10/27 01:09:36;;;;;;;26.90;13.35;;;;;;;-142.75;100.00;77434.53;4975011;28;19918;-69
2021/10/27 01:12:02;;;;;;;18.83;12.80;;;;;;;-142.75;100.00;77424.69;4991869;28;20022;-69
2021/10/27 01:14:45;;;;;;;25.38;12.70;;;;;;;-142.75;100.00;77428.63;4975183;28;20041;-69
2021/10/27 01:17:15;;;;;;;24.42;11.73;;;;;;;-142.75;100.00;77424.69;4975126;28;20035;-69
2021/10/27 01:19:54;;;;;;;24.75;13.07;;;;;;;-142.75;100.00;77420.75;4992187;28;20058;-66
2021/10/27 01:22:23;;;;;;;26.60;12.05;;;;;;;-142.75;100.00;77428.63;4993593;28;20026;-68
2021/10/27 01:24:48;;;;;;;22.45;11.68;;;;;;;-142.75;100.00;77428.63;4992630;28;20049;-68
2021/10/27 01:27:14;;;;;;;21.00;12.07;;;;;;;-142.75;100.00;77426.66;4990401;28;20503;-68
2021/10/27 01:29:40;;;;;;;;;;;;;;;-142.75;100.00;77424.69;4992141;28;20077;-66
2021/10/27 01:32:07;;;;;;;24.65;11.13;;;;;;;-142.75;100.00;77428.63;4990770;28;19929;-70
2021/10/27 01:34:33;;;;;;;17.42;10.18;;;;;;;-142.75;100.00;77438.47;4974593;28;20510;-69
2021/10/27 01:36:58;;;;;;;23.13;10.35;;;;;;;-142.75;100.00;77428.63;4974376;28;20041;-69
2021/10/27 01:39:24;;;;;;;25.98;9.98;;;;;;;-142.75;100.00;77430.59;4990618;28;20023;-69
2021/10/27 01:41:50;;;;;;;23.65;9.25;;;;;;;-142.75;100.00;77434.53;4973499;28;20026;-66
2021/10/27 01:44:16;;;;;;;;;;;;;;;-142.75;100.00;77426.66;4992231;28;20026;-68
2021/10/27 01:46:41;;;;;;;15.65;8.18;;;;;;;-142.75;100.00;77428.63;4992139;28;20375;-68
2021/10/27 01:49:09;;;;;;;19.60;7.45;;;;;;;-142.75;100.00;77426.66;4991656;28;20029;-69
2021/10/27 01:51:35;;;;;;;13.35;7.05;;;;;;;-142.75;100.00;77418.78;4990699;28;20038;-68
2021/10/27 01:54:01;;;;;;;13.40;7.00;;;;;;;-142.75;100.00;77414.84;4991681;28;20081;-69
2021/10/27 01:56:27;;;;;;;15.82;6.03;;;;;;;-142.75;100.00;77412.88;4991708;28;20030;-69
2021/10/27 01:58:55;;;;;;;;;;;;;;;-142.75;100.00;77416.81;4992065;28;20033;-68
2021/10/27 02:01:21;;;;;;;16.90;5.90;;;;;;;-142.75;100.00;77405.00;4990698;28;19917;-68
2021/10/27 02:03:47;;;;;;;;;;;;;;;-142.75;100.00;77403.03;4992229;28;20073;-69
2021/10/27 02:06:13;;;;;;;12.97;5.50;;;;;;;-142.75;100.00;77408.94;4973652;28;20362;-67
2021/10/27 02:08:39;;;;;;;16.73;5.07;;;;;;;-142.75;100.00;77408.94;4991717;28;20022;-69
2021/10/27 02:11:05;;;;;;;17.58;4.43;;;;;;;-142.75;100.00;77416.81;4972957;28;20122;-68
2021/10/27 02:13:31;;;;;;;15.32;4.32;;;;;;;-142.75;100.00;77422.72;4991373;28;20039;-68
2021/10/27 02:15:56;;;;;;;;;;;;;;;-142.75;100.00;77406.97;4974227;28;20074;-70
2021/10/27 02:18:21;;;;;;;16.23;5.50;;;;;;;-142.75;100.00;77403.03;4991191;28;19917;-69
2021/10/27 02:20:47;;;;;;;19.10;5.72;;;;;;;-142.75;100.00;77385.31;4990522;28;20395;-69
2021/10/27 02:23:13;;;;;;;;;;;;;;;-142.75;100.00;77401.06;4991211;28;20030;-66
2021/10/27 02:25:38;;;;;;;17.55;4.97;;;;;;;-142.75;100.00;77401.06;4991385;28;20017;-68
2021/10/27 02:28:03;;;;;;;11.38;4.97;;;;;;;-142.75;100.00;77381.38;4991014;28;20030;-68
2021/10/27 02:30:29;;;;;;;;;;;;;;;-142.75;100.00;77379.41;4990667;28;20030;-68
2021/10/27 02:32:54;;;;;;;19.65;4.18;;;;;;;-142.75;100.00;77375.47;4990697;28;19968;-69
2021/10/27 02:35:19;;;;;;;15.20;4.25;;;;;;;-142.75;100.00;77369.56;4990863;28;20054;-69
2021/10/27 02:37:45;;;;;;;;;;;;;;;-142.75;100.00;77359.72;4991417;28;20073;-70
2021/10/27 02:40:11;;;;;;;14.13;4.25;;;;;;;-142.75;100.00;77367.59;4989999;28;19914;-69
2021/10/27 02:42:39;;;;;;;18.75;5.13;;;;;;;-142.75;100.00;77369.56;4990858;28;20046;-69
2021/10/27 02:45:05;;;;;;;15.35;4.47;;;;;;;-142.75;100.00;77353.81;4973364;28;20548;-69
2021/10/27 02:47:31;;;;;;;13.95;5.20;;;;;;;-142.75;100.00;77361.69;4990528;28;20042;-69
2021/10/27 02:49:56;;;;;;;14.32;4.55;;;;;;;-142.75;100.00;77353.81;4989765;28;20093;-69
2021/10/27 02:52:21;;;;;;;;;;;;;;;-142.75;100.00;77355.78;4990951;28;20038;-69
2021/10/27 02:54:46;;;;;;;13.32;4.88;;;;;;;-142.75;100.00;77359.72;4990814;28;20383;-69
2021/10/27 02:57:12;;;;;;;;;;;;;;;-142.75;100.00;77355.78;4973235;28;20030;-67
2021/10/27 02:59:37;;;;;;;12.43;4.05;;;;;;;-142.75;100.00;77371.53;4990263;28;20018;-67
2021/10/27 03:02:02;;;;;;;;;;;;;;;-142.75;100.00;77377.44;4973068;28;20411;-69
2021/10/27 03:04:27;;;;;;;13.82;4.45;;;;;;;-142.75;100.00;77377.44;4990342;28;19968;-69
2021/10/27 03:06:53;;;;;;;;;;;;;;;-142.75;100.00;77365.63;4990742;28;20113;-69
2021/10/27 03:09:18;;;;;;;16.10;4.53;;;;;;;-142.75;100.00;77377.44;4990280;28;20338;-69
2021/10/27 03:11:43;;;;;;;;;;;;;;;-142.75;100.00;77369.56;4990202;28;20041;-69
2021/10/27 03:14:09;;;;;;;11.77;4.00;;;;;;;-142.75;100.00;77377.44;4972898;28;19914;-69
2021/10/27 03:16:34;;;;;;;;;;;;;;;-142.75;100.00;77397.13;4990648;28;20030;-69
2021/10/27 03:18:59;;;;;;;12.93;4.85;;;;;;;-142.75;100.00;77393.19;4990080;28;20286;-70
2021/10/27 03:21:25;;;;;;;16.42;4.32;;;;;;;-142.75;100.00;77408.94;4988061;28;20026;-69
2021/10/27 03:23:50;;;;;;;10.52;4.10;;;;;;;-142.75;100.00;77416.81;4990038;28;20377;-68
2021/10/27 03:26:15;;;;;;;16.77;4.32;;;;;;;-142.75;100.00;77420.75;4972618;28;20058;-69
2021/10/27 03:28:41;;;;;;;;;;;;;;;-142.75;100.00;77410.91;4989494;28;20026;-68
2021/10/27 03:33:45;;;;;;;13.80;4.13;;;;;;;-142.75;100.00;77420.75;5008150;28;20053;-67
2021/10/27 03:36:11;;;;;;;10.32;4.43;;;;;;;-142.75;100.00;77430.59;5009583;28;20026;-67
2021/10/27 03:38:36;;;;;;;14.43;4.85;;;;;;;-142.75;100.00;77444.38;5009961;28;20030;-67
2021/10/27 03:41:02;;;;;;;11.30;4.15;;;;;;;-142.75;100.00;77430.59;4991204;28;20076;-67
2021/10/27 03:43:28;;;;;;;12.38;4.32;;;;;;;-142.75;100.00;77432.56;4991765;28;20056;-67
2021/10/27 03:45:53;;;;;;;13.48;4.63;;;;;;;-142.75;100.00;77432.56;5009228;28;20380;-67
2021/10/27 03:48:18;;;;;;;;;;;;;;;-142.75;100.00;77432.56;4990729;28;20057;-67
2021/10/27 03:50:44;;;;;;;14.55;4.13;;;;;;;-142.75;100.00;77428.63;5013167;28;20000;-67
2021/10/27 03:53:10;;;;;;;;;;;;;;;-142.75;100.00;77438.47;5013930;28;20025;-67
2021/10/27 03:55:35;;;;;;;12.98;4.43;;;;;;;-142.75;100.00;77432.56;5013464;28;19913;-67
2021/10/27 03:58:01;;;;;;;;;;;;;;;-142.75;100.00;77436.50;4996368;28;20076;-67
2021/10/27 04:00:26;;;;;;;15.15;4.75;;;;;;;-142.75;100.00;77440.44;5012498;28;20353;-67
2021/10/27 04:02:52;;;;;;;14.73;4.38;;;;;;;-142.75;100.00;77422.72;5013215;28;20137;-67
2021/10/27 04:05:17;;;;;;;;;;;;;;;-142.75;100.00;77424.69;5013679;28;20482;-67
2021/10/27 04:07:42;;;;;;;11.52;4.00;;;;;;;-142.75;100.00;77428.63;5013623;28;20349;-66
2021/10/27 04:10:10;;;;;;;11.18;4.85;;;;;;;-142.75;100.00;77424.69;5012344;28;20033;-66
2021/10/27 04:12:36;;;;;;;11.30;4.28;;;;;;;-142.75;100.00;77430.59;5012057;28;20034;-67
2021/10/27 04:15:05;;;;;;;10.98;4.00;;;;;;;-142.75;100.00;77420.75;4995422;28;20029;-67
2021/10/27 04:17:30;;;;;;;9.90;4.18;;;;;;;-142.75;100.00;77440.44;5013052;28;20048;-67
2021/10/27 04:19:55;;;;;;;12.40;4.22;;;;;;;-142.75;100.00;77440.44;5012211;28;20390;-67
2021/10/27 04:22:21;;;;;;;;;;;;;;;-142.75;100.00;77442.41;5013364;28;20021;-67
2021/10/27 04:24:47;;;;;;;11.23;4.32;;;;;;;-142.75;100.00;77434.53;5013181;28;19914;-67
2021/10/27 04:27:12;;;;;;;;;;;;;;;-142.75;100.00;77434.53;5013044;28;20024;-66
2021/10/27 04:29:37;;;;;;;12.75;4.47;;;;;;;-142.75;100.00;77428.63;5012532;28;19964;-67
2021/10/27 04:32:02;;;;;;;;;;;;;;;-142.75;100.00;77440.44;5012375;28;20108;-67
2021/10/27 04:34:28;;;;;;;11.77;4.55;;;;;;;-142.75;100.00;77456.22;5012775;28;19913;-67
2021/10/27 04:36:53;;;;;;;11.43;3.78;;;;;;;-142.75;100.00;77448.34;5012721;28;20025;-67
2021/10/27 04:39:18;;;;;;;;;;;;;;;-142.75;100.00;77432.56;5013138;28;20022;-67
2021/10/27 04:41:44;;;;;;;10.73;4.38;;;;;;;-142.75;100.00;77434.53;5012045;28;19963;-67
2021/10/27 04:44:09;;;;;;;;;;;;;;;-142.75;100.00;77422.72;5013008;28;20061;-67
2021/10/27 04:46:34;;;;;;;9.68;4.72;;;;;;;-142.75;100.00;77436.50;5012413;28;20012;-67
2021/10/27 04:48:59;;;;;;;;;;;;;;;-142.75;100.00;77428.63;5012782;28;20434;-67
2021/10/27 04:51:25;;;;;;;11.52;4.13;;;;;;;-142.75;100.00;77416.81;5011608;28;19940;-67
2021/10/27 04:53:50;;;;;;;13.65;4.40;;;;;;;-142.75;100.00;77420.75;5011500;28;20025;-66
2021/10/27 04:56:15;;;;;;;;;;;;;;;-142.75;100.00;77416.81;5032521;28;20021;-67
2021/10/27 04:58:40;;;;;;;13.45;5.15;;;;;;;-142.75;100.00;77416.81;5032385;28;19940;-67
2021/10/27 05:01:06;;;;;;;11.57;4.82;;;;;;;-142.75;100.00;77416.81;5031085;28;20030;-66
2021/10/27 05:03:31;;;;;;;;;;;;;;;-142.75;100.00;77424.69;5032415;28;20029;-66
2021/10/27 05:05:57;;;;;;;13.48;4.03;;;;;;;-142.75;100.00;77410.91;5031856;28;19917;-67
2021/10/27 05:08:23;;;;;;;12.82;4.45;;;;;;;-142.75;100.00;77414.84;5031910;28;20071;-67
2021/10/27 05:10:50;;;;;;;15.77;4.80;;;;;;;-142.75;100.00;77414.84;5013179;28;20116;-66
2021/10/27 05:13:16;;;;;;;10.80;3.97;;;;;;;-142.75;100.00;77428.63;5014502;28;20045;-67
2021/10/27 05:15:41;;;;;;;13.00;4.57;;;;;;;-142.75;100.00;77416.81;5011778;28;20414;-66
2021/10/27 05:18:06;;;;;;;17.88;4.93;;;;;;;-142.75;100.00;77412.88;5012038;28;20048;-67
2021/10/27 05:20:32;;;;;;;8.75;4.50;;;;;;;-142.75;100.00;77420.75;5011077;28;20022;-67
2021/10/27 05:22:57;;;;;;;11.75;4.43;;;;;;;-142.75;100.00;77424.69;5011865;28;20026;-66
2021/10/27 05:25:23;;;;;;;13.40;4.22;;;;;;;-142.75;100.00;77428.63;4994137;28;20479;-66
2021/10/27 05:27:48;;;;;;;12.90;4.60;;;;;;;-142.75;100.00;77418.78;5011790;28;20459;-67
2021/10/27 05:30:13;;;;;;;;;;;;;;;-142.75;100.00;77420.75;5011231;28;20537;-66
2021/10/27 05:32:39;;;;;;;11.82;4.38;;;;;;;-142.75;100.00;77416.81;5011648;28;19917;-67
2021/10/27 05:35:04;;;;;;;;;;;;;;;-142.75;100.00;77416.81;5012062;28;20479;-67
2021/10/27 05:37:30;;;;;;;9.90;4.28;;;;;;;-142.75;100.00;77416.81;5011576;28;19953;-66
2021/10/27 05:39:55;;;;;;;17.85;4.03;;;;;;;-142.75;100.00;77428.63;4993284;28;20072;-67
2021/10/27 05:42:22;;;;;;;11.38;4.70;;;;;;;-142.75;100.00;77424.69;5011485;28;20060;-67
2021/10/27 05:44:50;;;;;;;10.30;4.45;;;;;;;-142.75;100.00;77434.53;5011670;28;20415;-66
2021/10/27 05:47:16;;;;;;;13.73;4.70;;;;;;;-142.75;100.00;77436.50;5011374;28;20108;-67
2021/10/27 05:49:54;;;;;;;10.65;4.68;;;;;;;-142.75;100.00;77444.38;5010767;28;20026;-67
2021/10/27 05:55:03;;;;;;;13.40;4.60;;;;;;;-142.75;100.00;77422.72;5031456;28;20490;-66
2021/10/27 05:57:34;;;;;;;9.75;4.63;;;;;;;-142.75;100.00;77424.69;5030949;28;20596;-66
2021/10/27 05:59:59;;;;;;;15.43;4.60;;;;;;;-142.75;100.00;77414.84;5030115;28;20525;-66
2021/10/27 06:02:24;;;;;;;12.73;4.65;;;;;;;-142.75;100.00;77418.78;5030778;28;20100;-67
2021/10/27 06:04:49;;;;;;;;;;;;;;;-142.75;100.00;77434.53;5031385;28;20039;-67
2021/10/27 06:07:15;;;;;;;10.95;4.35;;;;;;;-142.75;100.00;77444.38;5030769;28;19928;-67
2021/10/27 06:09:40;;;;;;;;;;;;;;;-142.75;100.00;77456.22;5030700;28;20028;-67
2021/10/27 06:12:09;;;;;;;16.83;5.10;;;;;;;-142.75;100.00;77440.44;5029933;28;19913;-66
2021/10/27 06:14:35;;;;;;;13.80;4.72;;;;;;;-142.75;100.00;77444.38;5030689;28;20036;-66
2021/10/27 06:17:00;;;;;;;;;;;;;;;-142.75;100.00;77450.28;5031000;28;20494;-66
2021/10/27 06:19:25;;;;;;;11.02;5.15;;;;;;;-142.75;100.00;77466.03;5012803;28;19959;-67
2021/10/27 06:21:51;;;;;;;;;;;;;;;-142.75;100.00;77462.13;5028301;28;20029;-66
2021/10/27 06:24:16;;;;;;;15.23;5.20;;;;;;;-142.75;100.00;77452.25;5023107;28;19967;-66
2021/10/27 06:26:43;;;;;;;11.40;4.60;;;;;;;-142.75;100.00;77468.03;5010085;28;20101;-66
2021/10/27 06:29:13;;;;;;;15.07;5.28;;;;;;;-142.75;100.00;77444.38;5009506;28;20490;-66
2021/10/27 06:31:42;;;;;;;12.88;4.93;;;;;;;-142.75;100.00;77456.22;5024945;28;20020;-66
2021/10/27 06:37:00;;;;;;;13.27;5.53;;;;;;;-142.75;100.00;77458.16;5027901;28;20510;-66
2021/10/27 06:47:37;;;;;;;16.23;5.97;;;;;;;-142.75;100.00;77468.03;5010005;28;20060;-66
2021/10/27 06:50:03;;;;;;;16.02;6.07;;;;;;;-142.75;100.00;77464.09;4990663;28;20022;-66
2021/10/27 06:52:28;;;;;;;;;;;;;;;-142.75;100.00;77479.84;4992082;28;20032;-66
2021/10/27 06:54:54;;;;;;;18.67;6.72;;;;;;;-142.75;100.00;77473.94;5009232;28;19917;-66
2021/10/27 06:57:24;;;;;;;;;;;;;;;-142.75;100.00;77487.72;5009476;28;20041;-66
2021/10/27 06:59:51;;;;;;;16.45;6.82;;;;;;;-142.75;100.00;77491.66;5008182;28;19913;-66
2021/10/27 07:05:08;;;;;;;10.10;5.57;;;;;;;-142.75;100.00;77509.38;5017753;28;20041;-66
2021/10/27 07:15:53;;;;;;;13.43;6.10;;;;;;;-142.75;100.00;77485.75;5028652;28;20158;-66
2021/10/27 07:18:18;;;;;;;13.43;6.28;;;;;;;-142.75;100.00;77487.72;5028738;28;20072;-66
2021/10/27 07:20:44;;;;;;;;;;;;;;;-142.75;100.00;77507.41;5028368;28;20017;-67
2021/10/27 07:23:10;;;;;;;12.20;5.85;;;;;;;-142.75;100.00;77521.19;5006530;28;19972;-66
2021/10/27 07:25:37;;;;;;;;;;;;;;;-142.75;100.00;77519.22;5009201;28;20030;-66
2021/10/27 07:28:03;;;;;;;;;;;;;;;-142.75;100.00;77519.22;5008998;28;19913;-66
2021/10/27 07:30:28;;;;;;;16.80;5.80;;;;;;;-142.75;100.00;77495.59;4990379;28;19918;-66
2021/10/27 07:32:56;;;;;;;;;;;;;;;-142.75;100.00;77466.03;5009011;28;20479;-67
2021/10/27 07:35:46;;;;;;;;;;;;;;;-142.75;100.00;77436.50;5008928;28;19914;-66
2021/10/27 07:40:54;;;;;;;14.80;5.63;;;;;;;-142.75;100.00;77397.13;5008243;28;20072;-67
2021/10/27 07:43:24;;;;;;;14.30;5.30;;;;;;;-142.75;100.00;77385.31;4990838;28;20061;-66
2021/10/27 07:45:49;;;;;;;14.52;5.82;;;;;;;-142.75;100.00;77389.25;5008573;28;20109;-66
2021/10/27 07:48:16;;;;;;;9.95;5.30;;;;;;;-142.75;100.00;77381.38;5008452;28;20032;-66
2021/10/27 07:50:41;;;;;;;12.45;5.18;;;;;;;-142.75;100.00;77387.28;5007747;28;20034;-66
2021/10/27 07:53:09;;;;;;;11.40;4.90;;;;;;;-142.75;100.00;77377.44;4990766;28;20032;-66
2021/10/27 07:55:40;;;;;;;16.20;5.75;;;;;;;-142.75;100.00;77371.53;4990472;28;20026;-66
2021/10/27 07:58:07;;;;;;;11.75;4.97;;;;;;;-142.75;100.00;77349.88;5008157;28;20037;-66
2021/10/27 08:00:33;;;;;;;14.88;5.05;;;;;;;-142.75;100.00;77353.81;4989995;28;20509;-66
2021/10/27 08:03:03;;;;;;;12.23;4.55;;;;;;;-142.75;100.00;77338.06;5008247;28;20112;-66
2021/10/27 08:05:37;;;;;;;13.27;4.63;;;;;;;-142.75;100.00;77318.38;5008338;28;20022;-66
2021/10/27 08:08:02;;;;;;;16.90;4.93;;;;;;;-142.75;100.00;77302.63;5007273;28;20399;-66
2021/10/27 08:10:29;;;;;;;14.40;5.40;;;;;;;-142.75;100.00;77279.00;5007332;28;20030;-66
2021/10/27 08:12:55;;;;;;;9.73;4.43;;;;;;;-142.75;100.00;77255.38;5007906;28;20105;-66
2021/10/27 08:15:20;;;;;;;12.77;4.30;;;;;;;-142.75;100.00;77257.34;5007947;28;20525;-67
2021/10/27 08:17:47;;;;;;;;;;;;;;;-142.75;100.00;77269.16;5012788;28;20487;-67
2021/10/27 08:20:14;;;;;;;8.98;4.22;;;;;;;-142.75;100.00;77275.06;5028335;28;19931;-66
2021/10/27 08:22:42;;;;;;;10.68;4.40;;;;;;;-142.75;100.00;77271.13;5011076;28;20036;-66
2021/10/27 08:25:15;;;;;;;9.90;4.20;;;;;;;-142.75;100.00;77265.22;5027849;28;20430;-66
2021/10/27 08:27:41;;;;;;;10.45;3.30;;;;;;;-142.75;100.00;77286.88;5028203;28;20021;-67
2021/10/27 08:30:08;;;;;;;8.95;3.67;;;;;;;-142.75;100.00;77286.88;5009616;28;20402;-66
2021/10/27 08:32:52;;;;;;;7.18;3.15;;;;;;;-142.75;100.00;77294.75;5027545;28;20029;-68
2021/10/27 08:35:18;;;;;;;12.05;3.83;;;;;;;-142.75;100.00;77302.63;5029686;28;20452;-67
2021/10/27 08:37:45;;;;;;;;;;;;;;;-142.75;100.00;77314.44;5032223;28;20422;-66
2021/10/27 08:40:11;;;;;;;11.30;4.07;;;;;;;-142.75;100.00;77314.44;5030935;28;20015;-65
2021/10/27 08:42:36;;;;;;;;;;;;;;;-142.75;100.00;77318.38;5031984;28;20029;-65
2021/10/27 08:45:02;;;;;;;12.75;5.03;;;;;;;-142.75;100.00;77338.06;5031297;28;20361;-66
2021/10/27 08:47:28;;;;;;;9.82;4.63;;;;;;;-142.75;100.00;77347.91;5031324;28;20033;-66
2021/10/27 08:49:55;;;;;;;11.25;6.43;;;;;;;-142.75;100.00;77340.03;5030311;28;20087;-66
2021/10/27 08:52:20;;;;;;;9.00;4.70;;;;;;;-142.75;100.00;77343.97;5030751;28;20068;-66
2021/10/27 08:54:46;;;;;;;10.38;5.15;;;;;;;-142.75;100.00;77334.13;5021038;28;20054;-66
2021/10/27 08:57:11;;;;;;;;;;;;;;;-142.75;100.00;77332.16;5011865;28;20022;-66
2021/10/27 09:02:42;;;;;;;15.23;5.20;;;;;;;-142.75;100.00;77328.22;5031333;28;20029;-66
2021/10/27 09:46:15;;;;;;;10.90;5.25;;;;;;;-142.75;100.00;77342.00;5011274;28;20034;-67
2021/10/27 10:05:25;;;;;;;11.77;5.05;;;;;;;-142.75;100.00;77322.31;5030630;28;20125;-70
2021/10/27 10:07:51;;;;;;;11.15;5.03;;;;;;;-142.75;100.00;77312.47;5012874;28;20024;-69
2021/10/27 10:10:17;;;;;;;11.65;5.10;;;;;;;-142.75;100.00;77322.31;5029826;28;20025;-69
2021/10/27 10:12:43;;;;;;;;;;;;;;;-142.75;100.00;77310.50;5030388;28;20057;-70
2021/10/27 10:15:10;;;;;;;12.20;5.38;;;;;;;-142.75;100.00;77332.16;5030873;28;20317;-70
2021/10/27 10:17:43;;;;;;;13.50;5.10;;;;;;;-142.75;100.00;77314.44;5016804;28;20040;-70
2021/10/27 10:20:14;;;;;;;11.65;4.93;;;;;;;-142.75;100.00;77310.50;4992270;28;20460;-70
2021/10/27 10:22:41;;;;;;;8.20;5.03;;;;;;;-142.75;100.00;77310.50;5011033;28;20435;-70
2021/10/27 10:25:15;;;;;;;12.82;4.60;;;;;;;-142.75;100.00;77300.66;5010649;28;20403;-70
2021/10/27 10:27:49;;;;;;;7.72;3.90;;;;;;;-142.75;100.00;77302.63;4993177;28;20491;-70
2021/10/27 10:30:32;;;;;;;10.95;4.63;;;;;;;-142.75;100.00;77308.53;5009483;28;20033;-70
2021/10/27 10:33:12;;;;;;;11.90;4.93;;;;;;;-142.75;100.00;77318.38;5009395;28;20026;-69
2021/10/27 10:41:22;;;;;;;10.82;3.97;;;;;;;-142.75;100.00;77345.94;5009409;28;20487;-69
2021/10/27 10:43:59;;;;;;;14.48;4.75;;;;;;;-142.75;100.00;77336.09;5008742;28;20038;-69
2021/10/27 11:24:33;;;;;;;12.68;7.82;;;;;;;-142.75;100.00;77361.69;5029782;28;20116;-70
2021/10/27 11:27:17;;;;;;;15.80;8.30;;;;;;;-142.75;100.00;77340.03;5029376;28;20029;-70
2021/10/27 11:38:20;;;;;;;14.13;9.15;;;;;;;-142.75;100.00;77353.81;5029591;28;20033;-69
2021/10/27 11:40:48;;;;;;;17.55;10.20;;;;;;;-142.75;100.00;77353.81;5010993;28;20018;-70
2021/10/27 11:43:27;;;;;;;13.02;9.20;;;;;;;-142.75;100.00;77322.31;5029236;28;20017;-69
2021/10/27 11:50:54;;;;;;;16.33;9.00;;;;;;;-142.75;100.00;77294.75;5008657;28;20398;-69
2021/10/27 11:53:32;;;;;;;15.80;9.07;;;;;;;-142.75;100.00;77279.00;5009289;28;20030;-70
2021/10/27 11:56:12;;;;;;;12.57;8.90;;;;;;;-142.75;100.00;77259.31;5008660;28;20030;-70
2021/10/27 11:58:41;;;;;;;12.40;8.05;;;;;;;-142.75;100.00;77269.16;5008311;28;20026;-70
2021/10/27 12:01:11;;;;;;;15.98;8.07;;;;;;;-142.75;100.00;77247.50;5008459;28;20701;-69
2021/10/27 12:03:39;;;;;;;11.30;7.78;;;;;;;-142.75;100.00;77223.88;4991159;28;20064;-70
2021/10/27 12:06:09;;;;;;;12.15;7.70;;;;;;;-142.75;100.00;77221.91;4990785;28;20030;-70
2021/10/27 12:14:11;;;;;;;13.48;7.93;;;;;;;-142.75;100.00;77204.19;5012968;28;20426;-70
2021/10/27 12:19:12;;;;;;;15.27;7.80;;;;;;;-142.75;100.00;77243.56;5012908;28;20037;-70
2021/10/27 12:21:37;;;;;;;16.20;7.72;;;;;;;-142.75;100.00;77210.09;5012574;28;20022;-70
2021/10/27 12:24:03;;;;;;;14.57;8.65;;;;;;;-142.75;100.00;77214.03;5013130;28;20502;-70
2021/10/27 12:26:48;;;;;;;;;;;;;;;-142.75;100.00;77153.00;5013476;28;20032;-70
2021/10/27 12:29:26;;;;;;;15.95;8.35;;;;;;;-142.75;100.00;77090.00;5012787;28;20412;-70
2021/10/27 12:32:15;;;;;;;12.90;7.82;;;;;;;-142.75;97.36;76965.97;5011846;28;20028;-70
2021/10/27 12:34:46;;;;;;;10.85;6.88;;;;;;;-142.75;91.47;76924.63;5012704;28;20095;-69
2021/10/27 12:40:12;;;;;;;10.00;6.43;;;;;;;-142.75;90.09;76932.50;5011378;28;20030;-69
2021/10/27 12:42:38;;;;;;;12.10;6.63;;;;;;;-142.75;87.10;76928.56;5012560;28;20032;-69
2021/10/27 12:45:04;;;;;;;;;;;;;;;-142.75;86.20;76928.56;5012650;28;20029;-69
2021/10/27 12:47:33;;;;;;;11.65;5.78;;;;;;;-142.75;87.25;76956.13;5012708;28;19918;-69
2021/10/27 12:50:15;;;;;;;13.73;6.80;;;;;;;-142.75;87.18;76952.19;5010607;28;20041;-69
2021/10/27 12:52:53;;;;;;;15.38;6.40;;;;;;;-142.75;86.92;76922.66;5012855;28;20026;-69
2021/10/27 12:55:29;;;;;;;10.98;5.40;;;;;;;-142.75;87.10;76960.06;4994771;28;20028;-69
2021/10/27 12:58:10;;;;;;;9.88;5.55;;;;;;;-142.75;88.44;76932.50;5029650;28;20029;-70
2021/10/27 13:01:10;;;;;;;12.65;6.10;;;;;;;-142.75;87.28;76997.47;5019637;28;20026;-69
2021/10/27 13:03:48;;;;;;;10.65;6.35;;;;;;;-142.75;90.41;77054.56;5012254;28;20034;-69
2021/10/27 13:18:53;;;;;;;;;;;;;;;-142.75;100.00;77172.69;5012757;28;20091;-69
2021/10/27 13:29:26;;;;;;;;;;;;;;;-142.75;100.00;77156.94;5012278;28;20030;-70
2021/10/27 13:29:45;;;;;;;9.93;6.20;;;;;;;-142.75;100.00;77194.34;5031501;28;20072;-70
2021/10/27 13:32:20;;;;;;;12.18;6.57;;;;;;;-142.75;100.00;77223.88;5031657;28;20021;-69
2021/10/27 13:34:45;;;;;;;12.20;5.97;;;;;;;-142.75;100.00;77204.19;5031842;28;20052;-68
2021/10/27 13:37:12;;;;;;;11.32;5.50;;;;;;;-142.75;100.00;77208.13;5031447;28;20120;-70
2021/10/27 13:39:38;;;;;;;11.75;6.40;;;;;;;-142.75;100.00;77216.00;5031134;28;20116;-69
2021/10/27 13:42:49;;;;;;;;;;;;;;;-142.75;100.00;77229.78;5031223;28;20053;-69
2021/10/27 13:45:03;;;;;;;9.98;6.30;;;;;;;-142.75;100.00;77247.50;5025524;28;19975;-68
2021/10/27 14:06:39;;;;;;;12.45;7.28;;;;;;;-142.75;100.00;77302.63;4970484;28;20036;-69
2021/10/27 14:11:55;;;;;;;11.73;6.72;;;;;;;-142.75;100.00;77284.91;5009666;28;20033;-69
2021/10/27 14:14:28;;;;;;;11.18;6.47;;;;;;;-142.75;100.00;77294.75;5011048;28;20022;-68
2021/10/27 15:22:13;;;;;;;13.82;8.07;;;;;;;-142.75;100.00;77403.03;5028851;28;20063;-69
2021/10/27 15:35:15;;;;;;;14.23;7.88;;;;;;;-142.75;100.00;77430.59;5008812;28;20120;-70
2021/10/27 15:40:40;;;;;;;11.60;7.82;;;;;;;-142.75;100.00;77416.81;5008183;28;20095;-70
2021/10/27 15:43:27;;;;;;;17.10;8.18;;;;;;;-142.75;100.00;77436.50;5008868;28;20499;-69
2021/10/27 15:51:23;;;;;;;12.60;7.80;;;;;;;-142.75;100.00;77410.91;5009990;28;20045;-70
2021/10/27 15:53:52;;;;;;;12.38;7.90;;;;;;;-142.75;100.00;77422.72;4999471;28;20061;-72
2021/10/27 15:56:18;;;;;;;12.68;7.95;;;;;;;-142.75;100.00;77432.56;5039779;22;20057;-68
2021/10/27 15:58:44;;;;;;;;;;;;;;;-142.75;100.00;77426.66;5009299;28;20041;-68
2021/10/27 16:01:10;;;;;;;13.70;8.13;;;;;;;-142.75;100.00;77432.56;5008633;28;19913;-68
2021/10/27 16:03:35;;;;;;;13.13;8.43;;;;;;;-142.75;100.00;77444.38;5009311;28;20026;-68